createdAt,value
2022-10-08T00:00:25.175Z,11.60
2022-10-08T00:03:13.855Z,11.60
2022-10-08T00:06:04.107Z,11.60
2022-10-08T00:08:57.500Z,11.60
2022-10-08T00:11:44.987Z,11.60
2022-10-08T00:14:32.493Z,11.70
2022-10-08T00:17:19.796Z,11.70
2022-10-08T00:20:07.323Z,11.70
2022-10-08T00:22:54.744Z,11.60
2022-10-08T00:25:45.499Z,11.70
2022-10-08T00:28:32.901Z,11.80
2022-10-08T00:31:23.298Z,12.00
2022-10-08T00:34:13.131Z,12.10
2022-10-08T00:37:00.668Z,12.20
2022-10-08T00:39:48.133Z,12.30
2022-10-08T00:42:35.744Z,12.50
2022-10-08T00:45:23.072Z,12.60
2022-10-08T00:48:13.605Z,12.70
2022-10-08T00:51:00.728Z,12.80
2022-10-08T00:53:48.008Z,12.80
2022-10-08T00:56:37.993Z,12.90
2022-10-08T00:59:26.217Z,13.00
2022-10-08T01:02:13.815Z,13.10
2022-10-08T01:05:02.076Z,13.10
2022-10-08T01:07:55.669Z,13.20
2022-10-08T01:11:01.224Z,13.20
2022-10-08T01:14:16.881Z,13.30
2022-10-08T01:17:16.064Z,13.40
2022-10-08T01:20:12.146Z,13.50
2022-10-08T01:23:31.108Z,13.60
2022-10-08T01:26:30.461Z,13.60
2022-10-08T01:29:42.043Z,13.70
2022-10-08T01:32:34.379Z,13.70
2022-10-08T01:35:25.710Z,13.80
2022-10-08T01:38:16.359Z,13.80
2022-10-08T01:41:06.641Z,13.70
2022-10-08T01:43:57.105Z,13.60
2022-10-08T01:46:46.570Z,13.60
2022-10-08T01:49:36.819Z,13.60
2022-10-08T01:52:30.156Z,13.60
2022-10-08T01:55:20.564Z,13.50
2022-10-08T01:58:11.013Z,13.50
2022-10-08T02:01:02.488Z,13.50
2022-10-08T02:04:07.845Z,13.50
2022-10-08T02:06:58.153Z,13.50
2022-10-08T02:09:53.694Z,13.40
2022-10-08T02:12:42.172Z,13.30
2022-10-08T02:16:07.029Z,13.20
2022-10-08T02:18:58.243Z,13.00
2022-10-08T02:21:45.950Z,12.90
2022-10-08T02:24:42.168Z,12.90
2022-10-08T02:27:33.479Z,12.80
2022-10-08T02:30:21.411Z,12.70
2022-10-08T02:33:29.606Z,12.60
2022-10-08T02:36:19.830Z,12.60
2022-10-08T02:39:08.295Z,12.40
2022-10-08T02:41:58.904Z,12.30
2022-10-08T02:44:49.398Z,12.30
2022-10-08T02:47:39.383Z,12.30
2022-10-08T02:50:29.941Z,12.30
2022-10-08T02:53:18.511Z,12.20
2022-10-08T02:56:27.462Z,12.10
2022-10-08T02:59:17.939Z,12.10
2022-10-08T03:02:07.533Z,12.00
2022-10-08T03:05:03.987Z,11.80
2022-10-08T03:07:54.293Z,11.80
2022-10-08T03:10:43.875Z,11.60
2022-10-08T03:13:33.236Z,11.50
2022-10-08T03:16:23.429Z,11.30
2022-10-08T03:19:13.728Z,11.10
2022-10-08T03:22:02.232Z,10.90
2022-10-08T03:24:52.689Z,10.80
2022-10-08T03:27:38.592Z,10.70
2022-10-08T03:30:25.846Z,10.50
2022-10-08T03:33:13.492Z,10.30
2022-10-08T03:36:00.977Z,10.30
2022-10-08T03:38:49.063Z,10.20
2022-10-08T03:41:36.205Z,10.10
2022-10-08T03:44:23.538Z,10.00
2022-10-08T03:47:11.063Z,9.90
2022-10-08T03:49:58.258Z,9.90
2022-10-08T03:52:45.798Z,9.70
2022-10-08T03:55:36.182Z,9.60
2022-10-08T03:58:24.165Z,9.70
2022-10-08T04:01:17.771Z,9.60
2022-10-08T04:04:05.543Z,9.60
2022-10-08T04:06:53.822Z,9.40
2022-10-08T04:09:41.327Z,9.40
2022-10-08T04:12:30.145Z,9.30
2022-10-08T04:15:17.507Z,9.30
2022-10-08T04:18:06.714Z,9.20
2022-10-08T04:20:59.662Z,9.20
2022-10-08T04:23:47.085Z,9.10
2022-10-08T04:26:34.558Z,9.10
2022-10-08T04:29:22.057Z,9.10
2022-10-08T04:32:09.257Z,9.10
2022-10-08T04:34:56.721Z,9.20
2022-10-08T04:37:44.325Z,9.30
2022-10-08T04:40:31.766Z,9.30
2022-10-08T04:43:19.171Z,9.10
2022-10-08T04:46:08.526Z,9.10
2022-10-08T04:48:57.451Z,9.10
2022-10-08T04:51:44.835Z,9.10
2022-10-08T04:54:32.330Z,9.00
2022-10-08T04:57:19.816Z,8.90
2022-10-08T05:00:18.153Z,8.90
2022-10-08T05:02:56.775Z,8.80
2022-10-08T05:05:45.905Z,8.70
2022-10-08T05:08:33.720Z,8.70
2022-10-08T05:11:22.658Z,8.70
2022-10-08T05:14:10.363Z,8.80
2022-10-08T05:16:57.807Z,8.80
2022-10-08T05:19:45.113Z,8.90
2022-10-08T05:22:32.637Z,9.00
2022-10-08T05:25:20.115Z,8.90
2022-10-08T05:28:07.521Z,8.90
2022-10-08T05:31:02.645Z,8.80
2022-10-08T05:33:50.047Z,8.80
2022-10-08T05:36:37.091Z,8.50
2022-10-08T05:39:24.357Z,8.40
2022-10-08T05:42:11.796Z,8.40
2022-10-08T05:44:59.043Z,8.30
2022-10-08T05:47:48.523Z,8.30
2022-10-08T05:50:37.485Z,8.30
2022-10-08T05:53:25.009Z,8.40
2022-10-08T05:56:13.314Z,8.30
2022-10-08T05:59:00.610Z,8.20
2022-10-08T06:01:48.394Z,8.20
2022-10-08T06:04:35.760Z,8.10
2022-10-08T06:07:22.838Z,8.10
2022-10-08T06:10:10.354Z,8.10
2022-10-08T06:12:58.932Z,8.10
2022-10-08T06:15:57.546Z,8.10
2022-10-08T06:18:44.757Z,8.00
2022-10-08T06:21:33.156Z,8.00
2022-10-08T06:24:21.555Z,8.10
2022-10-08T06:27:08.951Z,8.10
2022-10-08T06:29:56.249Z,8.20
2022-10-08T06:32:43.354Z,8.40
2022-10-08T06:35:33.020Z,8.60
2022-10-08T06:38:20.515Z,8.60
2022-10-08T06:41:07.845Z,8.50
2022-10-08T06:43:55.751Z,8.40
2022-10-08T06:46:44.111Z,8.40
2022-10-08T06:49:31.591Z,8.60
2022-10-08T06:52:19.053Z,8.80
2022-10-08T06:55:06.839Z,9.00
2022-10-08T06:57:54.286Z,9.20
2022-10-08T07:00:41.709Z,9.50
2022-10-08T07:03:29.218Z,9.60
2022-10-08T07:06:16.787Z,9.80
2022-10-08T07:09:05.260Z,10.00
2022-10-08T07:11:52.933Z,10.10
2022-10-08T07:14:40.175Z,10.30
2022-10-08T07:17:29.375Z,10.50
2022-10-08T07:20:17.945Z,10.60
2022-10-08T07:23:05.371Z,10.80
2022-10-08T07:26:10.405Z,11.00
2022-10-08T07:29:00.705Z,11.20
2022-10-08T07:31:48.036Z,11.40
2022-10-08T07:34:35.579Z,11.60
2022-10-08T07:37:22.944Z,11.80
2022-10-08T07:40:10.979Z,12.00
2022-10-08T07:42:58.237Z,12.30
2022-10-08T07:45:46.654Z,12.50
2022-10-08T07:48:34.316Z,12.60
2022-10-08T07:51:22.113Z,12.80
2022-10-08T07:54:11.759Z,13.10
2022-10-08T07:57:00.679Z,13.30
2022-10-08T07:59:48.081Z,13.60
2022-10-08T08:02:35.726Z,13.90
2022-10-08T08:05:22.899Z,14.10
2022-10-08T08:08:11.086Z,14.40
2022-10-08T08:11:03.437Z,14.50
2022-10-08T08:13:50.824Z,14.60
2022-10-08T08:16:38.333Z,14.50
2022-10-08T08:19:27.280Z,14.60
2022-10-08T08:22:14.801Z,14.60
2022-10-08T08:25:01.973Z,14.70
2022-10-08T08:27:49.150Z,14.90
2022-10-08T08:30:36.416Z,14.90
2022-10-08T08:33:24.206Z,15.00
2022-10-08T08:36:11.636Z,15.10
2022-10-08T08:38:59.345Z,15.20
2022-10-08T08:41:57.264Z,15.30
2022-10-08T08:44:47.064Z,15.20
2022-10-08T08:47:43.605Z,15.20
2022-10-08T08:50:39.767Z,15.30
2022-10-08T08:53:28.512Z,15.30
2022-10-08T08:56:18.747Z,15.30
2022-10-08T08:59:17.940Z,15.20
2022-10-08T09:02:08.228Z,15.30
2022-10-08T09:05:02.584Z,15.50
2022-10-08T09:07:54.398Z,15.60
2022-10-08T09:10:47.425Z,15.80
2022-10-08T09:13:59.016Z,15.70
2022-10-08T09:16:47.099Z,15.70
2022-10-08T09:19:34.333Z,15.80
2022-10-08T09:22:27.885Z,15.60
2022-10-08T09:25:18.209Z,15.60
2022-10-08T09:28:05.939Z,15.60
2022-10-08T09:30:55.594Z,15.80
2022-10-08T09:33:42.012Z,16.00
2022-10-08T09:36:44.557Z,16.10
2022-10-08T09:39:35.763Z,16.30
2022-10-08T09:42:23.104Z,16.40
2022-10-08T09:45:31.692Z,16.30
2022-10-08T09:48:22.202Z,16.20
2022-10-08T09:51:17.932Z,16.10
2022-10-08T09:54:06.630Z,16.20
2022-10-08T09:56:57.153Z,16.40
2022-10-08T09:59:49.940Z,16.50
2022-10-08T10:02:39.348Z,16.60
2022-10-08T10:05:32.567Z,16.60
2022-10-08T10:08:43.587Z,16.90
2022-10-08T10:11:39.400Z,17.00
2022-10-08T10:14:39.185Z,17.10
2022-10-08T10:17:32.063Z,17.20
2022-10-08T10:20:25.397Z,17.00
2022-10-08T10:23:25.698Z,17.20
2022-10-08T10:26:17.094Z,17.50
2022-10-08T10:29:13.407Z,17.40
2022-10-08T10:32:03.694Z,17.40
2022-10-08T10:34:56.898Z,17.60
2022-10-08T10:37:50.195Z,17.70
2022-10-08T10:40:55.773Z,17.80
2022-10-08T10:43:48.998Z,17.40
2022-10-08T10:46:40.817Z,17.30
2022-10-08T10:49:38.272Z,17.60
2022-10-08T10:52:47.029Z,17.60
2022-10-08T10:55:40.310Z,17.70
2022-10-08T10:58:42.542Z,18.00
2022-10-08T11:02:06.010Z,18.10
2022-10-08T11:05:15.765Z,18.00
2022-10-08T11:08:27.061Z,18.10
2022-10-08T11:11:35.334Z,18.50
2022-10-08T11:14:37.732Z,18.30
2022-10-08T11:17:29.910Z,18.10
2022-10-08T11:20:36.232Z,18.20
2022-10-08T11:23:43.195Z,18.60
2022-10-08T11:26:48.101Z,18.60
2022-10-08T11:29:54.851Z,18.80
2022-10-08T11:32:45.635Z,18.70
2022-10-08T11:35:44.784Z,18.80
2022-10-08T11:38:50.855Z,18.80
2022-10-08T11:41:48.948Z,18.50
2022-10-08T11:44:37.459Z,18.20
2022-10-08T11:47:46.165Z,17.90
2022-10-08T11:50:36.079Z,18.10
2022-10-08T11:53:23.813Z,18.30
2022-10-08T11:56:12.579Z,18.50
2022-10-08T11:59:03.563Z,18.50
2022-10-08T12:01:57.288Z,18.50
2022-10-08T12:04:44.609Z,18.70
2022-10-08T12:07:35.089Z,18.90
2022-10-08T12:10:31.491Z,18.90
2022-10-08T12:13:28.599Z,18.90
2022-10-08T12:16:15.484Z,18.60
2022-10-08T12:19:02.919Z,18.80
2022-10-08T12:21:51.647Z,18.40
2022-10-08T12:24:49.555Z,18.60
2022-10-08T12:27:37.957Z,18.80
2022-10-08T12:30:28.209Z,18.60
2022-10-08T12:33:16.874Z,18.50
2022-10-08T12:36:16.875Z,18.30
2022-10-08T12:39:12.800Z,18.20
2022-10-08T12:42:19.809Z,18.00
2022-10-08T12:45:25.232Z,17.70
2022-10-08T12:48:32.598Z,17.50
2022-10-08T12:51:45.709Z,17.50
2022-10-08T12:54:34.233Z,17.90
2022-10-08T12:57:34.471Z,18.10
2022-10-08T13:00:28.213Z,17.90
2022-10-08T13:03:18.156Z,17.80
2022-10-08T13:06:25.168Z,17.80
2022-10-08T13:09:27.732Z,18.00
2022-10-08T13:12:15.134Z,18.20
2022-10-08T13:15:09.467Z,18.50
2022-10-08T13:17:57.092Z,18.80
2022-10-08T13:20:59.383Z,19.10
2022-10-08T13:23:46.874Z,19.10
2022-10-08T13:26:40.260Z,19.30
2022-10-08T13:29:31.230Z,19.00
2022-10-08T13:32:21.722Z,18.70
2022-10-08T13:35:11.960Z,18.60
2022-10-08T13:37:59.023Z,18.80
2022-10-08T13:40:55.463Z,18.60
2022-10-08T13:43:43.134Z,18.50
2022-10-08T13:46:30.598Z,18.40
2022-10-08T13:49:27.764Z,18.20
2022-10-08T13:52:23.855Z,18.40
2022-10-08T13:55:32.427Z,18.40
2022-10-08T13:58:21.182Z,18.70
2022-10-08T14:01:08.673Z,18.90
2022-10-08T14:03:57.157Z,18.70
2022-10-08T14:06:47.704Z,18.70
2022-10-08T14:09:35.026Z,19.00
2022-10-08T14:12:30.014Z,18.90
2022-10-08T14:15:17.898Z,19.00
2022-10-08T14:18:05.425Z,18.80
2022-10-08T14:20:52.964Z,18.60
2022-10-08T14:23:40.549Z,18.70
2022-10-08T14:26:28.237Z,18.80
2022-10-08T14:29:15.301Z,18.70
2022-10-08T14:32:05.585Z,18.70
2022-10-08T14:34:52.889Z,18.60
2022-10-08T14:37:40.425Z,18.40
2022-10-08T14:40:27.652Z,18.30
2022-10-08T14:43:14.855Z,18.40
2022-10-08T14:46:02.643Z,18.40
2022-10-08T14:48:49.919Z,18.50
2022-10-08T14:51:40.665Z,18.50
2022-10-08T14:54:28.133Z,18.70
2022-10-08T14:57:15.455Z,18.90
2022-10-08T15:00:02.759Z,19.20
2022-10-08T15:02:50.551Z,19.30
2022-10-08T15:05:38.384Z,19.30
2022-10-08T15:08:25.834Z,19.30
2022-10-08T15:11:13.120Z,19.50
2022-10-08T15:14:00.613Z,19.70
2022-10-08T15:16:48.003Z,19.80
2022-10-08T15:19:35.099Z,19.50
2022-10-08T15:22:23.699Z,19.40
2022-10-08T15:25:11.156Z,19.30
2022-10-08T15:27:58.656Z,19.30
2022-10-08T15:30:46.356Z,19.30
2022-10-08T15:33:40.063Z,19.30
2022-10-08T15:36:30.094Z,19.00
2022-10-08T15:39:20.980Z,18.80
2022-10-08T15:42:08.332Z,18.40
2022-10-08T15:44:56.127Z,18.20
2022-10-08T15:47:43.324Z,18.30
2022-10-08T15:50:30.914Z,18.20
2022-10-08T15:53:18.405Z,18.20
2022-10-08T15:56:06.939Z,18.20
2022-10-08T15:58:54.434Z,18.20
2022-10-08T16:01:41.656Z,18.30
2022-10-08T16:04:30.675Z,18.30
2022-10-08T16:07:18.337Z,18.30
2022-10-08T16:10:05.907Z,18.30
2022-10-08T16:12:53.081Z,18.20
2022-10-08T16:15:41.020Z,18.00
2022-10-08T16:18:28.056Z,17.70
2022-10-08T16:21:15.597Z,17.70
2022-10-08T16:24:03.573Z,17.70
2022-10-08T16:26:51.887Z,17.50
2022-10-08T16:29:39.017Z,17.40
2022-10-08T16:32:28.137Z,17.20
2022-10-08T16:35:15.664Z,17.20
2022-10-08T16:38:03.308Z,17.10
2022-10-08T16:40:51.252Z,16.90
2022-10-08T16:43:38.478Z,16.80
2022-10-08T16:46:31.818Z,16.60
2022-10-08T16:49:28.204Z,16.50
2022-10-08T16:52:15.395Z,16.40
2022-10-08T16:55:03.120Z,16.30
2022-10-08T16:57:51.752Z,16.10
2022-10-08T17:00:39.094Z,15.90
2022-10-08T17:03:26.669Z,15.70
2022-10-08T17:06:15.280Z,15.50
2022-10-08T17:09:03.713Z,15.40
2022-10-08T17:11:51.040Z,15.30
2022-10-08T17:14:38.610Z,15.20
2022-10-08T17:17:25.875Z,15.10
2022-10-08T17:20:13.609Z,15.00
2022-10-08T17:23:01.067Z,14.80
2022-10-08T17:25:50.116Z,14.60
2022-10-08T17:28:43.844Z,14.50
2022-10-08T17:31:31.876Z,14.40
2022-10-08T17:34:19.015Z,14.20
2022-10-08T17:37:06.331Z,14.20
2022-10-08T17:39:53.781Z,14.00
2022-10-08T17:42:41.348Z,13.90
2022-10-08T17:45:28.705Z,13.90
2022-10-08T17:48:15.790Z,13.70
2022-10-08T17:51:04.528Z,13.60
2022-10-08T17:54:01.154Z,13.50
2022-10-08T17:56:49.372Z,13.40
2022-10-08T17:59:36.945Z,13.30
2022-10-08T18:02:25.144Z,13.20
2022-10-08T18:05:12.349Z,13.10
2022-10-08T18:07:59.914Z,13.10
2022-10-08T18:10:47.458Z,13.10
2022-10-08T18:13:35.492Z,13.00
2022-10-08T18:16:25.198Z,12.80
2022-10-08T18:19:13.236Z,12.80
2022-10-08T18:22:00.445Z,12.80
2022-10-08T18:24:48.093Z,12.80
2022-10-08T18:27:35.129Z,12.70
2022-10-08T18:30:22.437Z,12.60
2022-10-08T18:33:09.988Z,12.60
2022-10-08T18:35:59.064Z,12.50
2022-10-08T18:38:48.350Z,12.40
2022-10-08T18:41:38.746Z,12.40
2022-10-08T18:44:27.125Z,12.30
2022-10-08T18:47:14.705Z,12.20
2022-10-08T18:50:02.264Z,12.10
2022-10-08T18:52:50.062Z,12.10
2022-10-08T18:55:37.816Z,12.00
2022-10-08T18:58:25.396Z,12.00
2022-10-08T19:01:24.436Z,11.90
2022-10-08T19:04:20.974Z,11.80
2022-10-08T19:07:08.228Z,11.80
2022-10-08T19:09:55.762Z,11.90
2022-10-08T19:12:43.124Z,11.90
2022-10-08T19:15:30.488Z,12.10
2022-10-08T19:18:18.005Z,12.20
2022-10-08T19:21:10.396Z,12.40
2022-10-08T19:23:59.374Z,12.50
2022-10-08T19:26:47.954Z,12.50
2022-10-08T19:29:36.431Z,12.60
2022-10-08T19:32:23.752Z,12.50
2022-10-08T19:35:11.766Z,12.50
2022-10-08T19:37:59.367Z,12.50
2022-10-08T19:40:46.669Z,12.50
2022-10-08T19:43:33.977Z,12.50
2022-10-08T19:46:21.801Z,12.50
2022-10-08T19:49:10.209Z,12.50
2022-10-08T19:51:57.669Z,12.50
2022-10-08T19:54:45.201Z,12.60
2022-10-08T19:57:32.787Z,12.70
2022-10-08T20:00:20.274Z,12.80
2022-10-08T20:03:07.370Z,12.80
2022-10-08T20:05:55.041Z,12.90
2022-10-08T20:08:42.690Z,12.90
2022-10-08T20:11:31.484Z,12.90
2022-10-08T20:14:18.995Z,13.00
2022-10-08T20:17:06.566Z,13.00
2022-10-08T20:20:05.196Z,13.10
2022-10-08T20:22:43.096Z,13.10
2022-10-08T20:25:32.003Z,13.10
2022-10-08T20:28:19.425Z,13.10
2022-10-08T20:31:15.473Z,13.10
2022-10-08T20:34:05.717Z,13.10
2022-10-08T20:36:54.480Z,13.10
2022-10-08T20:39:41.961Z,13.00
2022-10-08T20:42:30.296Z,13.00
2022-10-08T20:45:17.900Z,13.00
2022-10-08T20:48:05.399Z,12.90
2022-10-08T20:50:52.844Z,12.90
2022-10-08T20:53:40.383Z,13.00
2022-10-08T20:56:28.892Z,13.00
2022-10-08T20:59:18.481Z,13.10
2022-10-08T21:02:06.445Z,13.10
2022-10-08T21:04:53.590Z,13.00
2022-10-08T21:07:40.884Z,13.10
2022-10-08T21:10:28.134Z,13.10
2022-10-08T21:13:15.404Z,13.10
2022-10-08T21:16:12.444Z,13.10
2022-10-08T21:19:02.678Z,13.10
2022-10-08T21:21:50.440Z,13.10
2022-10-08T21:24:37.646Z,13.00
2022-10-08T21:27:25.254Z,13.00
2022-10-08T21:30:14.070Z,12.90
2022-10-08T21:33:01.286Z,12.90
2022-10-08T21:35:48.962Z,12.90
2022-10-08T21:38:36.522Z,12.80
2022-10-08T21:41:25.701Z,12.80
2022-10-08T21:44:13.246Z,12.70
2022-10-08T21:47:00.450Z,12.70
2022-10-08T21:49:47.892Z,12.60
2022-10-08T21:52:35.515Z,12.40
2022-10-08T21:55:23.017Z,12.30
2022-10-08T21:58:10.440Z,12.10
2022-10-08T22:00:58.543Z,12.00
2022-10-08T22:03:45.715Z,11.90
2022-10-08T22:06:34.836Z,11.80
2022-10-08T22:09:25.015Z,11.60
2022-10-08T22:12:12.208Z,11.50
2022-10-08T22:14:59.926Z,11.50
2022-10-08T22:17:47.506Z,11.40
2022-10-08T22:20:36.206Z,11.30
2022-10-08T22:23:24.193Z,11.20
2022-10-08T22:26:20.862Z,11.30
2022-10-08T22:29:08.808Z,11.10
2022-10-08T22:31:55.969Z,11.00
2022-10-08T22:34:43.148Z,10.90
2022-10-08T22:37:31.059Z,10.90
2022-10-08T22:40:18.439Z,10.70
2022-10-08T22:43:05.979Z,10.60
2022-10-08T22:45:53.542Z,10.60
2022-10-08T22:48:41.448Z,10.50
2022-10-08T22:51:29.945Z,10.40
2022-10-08T22:54:17.206Z,10.00
2022-10-08T22:57:04.489Z,9.90
2022-10-08T22:59:52.051Z,9.80
2022-10-08T23:02:39.888Z,9.80
2022-10-08T23:05:27.364Z,9.70
2022-10-08T23:08:14.564Z,9.60
2022-10-08T23:11:02.122Z,9.40
2022-10-08T23:13:55.429Z,9.40
2022-10-08T23:16:42.836Z,9.30
2022-10-08T23:19:30.255Z,9.20
2022-10-08T23:22:17.510Z,9.10
2022-10-08T23:25:04.915Z,9.00
2022-10-08T23:27:52.268Z,9.00
2022-10-08T23:30:43.689Z,9.00
2022-10-08T23:33:30.309Z,8.90
2022-10-08T23:36:26.714Z,8.80
2022-10-08T23:39:16.144Z,8.70
2022-10-08T23:42:03.713Z,8.50
2022-10-08T23:44:51.133Z,8.40
2022-10-08T23:47:38.287Z,8.20
2022-10-08T23:50:25.905Z,8.20
2022-10-08T23:53:13.135Z,8.30
2022-10-08T23:56:00.420Z,8.30
2022-10-08T23:58:48.139Z,8.20
